createdAt,value
2023-07-23T00:00:49.665Z,85.70
2023-07-23T00:04:31.721Z,85.70
2023-07-23T00:08:14.630Z,85.70
2023-07-23T00:11:56.448Z,85.70
2023-07-23T00:15:38.291Z,85.80
2023-07-23T00:19:22.938Z,85.80
2023-07-23T00:23:04.770Z,85.80
2023-07-23T00:26:46.925Z,85.80
2023-07-23T00:30:28.745Z,85.80
2023-07-23T00:34:10.678Z,85.80
2023-07-23T00:37:52.596Z,85.80
2023-07-23T00:41:34.432Z,85.70
2023-07-23T00:45:16.325Z,85.70
2023-07-23T00:49:02.621Z,85.60
2023-07-23T00:52:44.561Z,85.60
2023-07-23T00:56:27.638Z,85.80
2023-07-23T01:00:10.638Z,85.70
2023-07-23T01:03:52.742Z,85.70
2023-07-23T01:07:36.456Z,85.70
2023-07-23T01:11:18.487Z,85.70
2023-07-23T01:15:00.461Z,85.70
2023-07-23T01:18:43.651Z,85.70
2023-07-23T01:22:25.463Z,85.60
2023-07-23T01:26:08.692Z,85.70
2023-07-23T01:29:50.580Z,85.70
2023-07-23T01:33:32.632Z,85.70
2023-07-23T01:37:15.198Z,85.70
2023-07-23T01:40:59.089Z,85.80
2023-07-23T01:44:42.438Z,85.90
2023-07-23T01:48:24.468Z,85.90
2023-07-23T01:52:06.585Z,85.80
2023-07-23T01:55:48.377Z,85.80
2023-07-23T01:59:30.292Z,85.70
2023-07-23T02:03:12.245Z,85.60
2023-07-23T02:06:54.134Z,85.60
2023-07-23T02:10:36.827Z,85.70
2023-07-23T02:14:18.772Z,85.70
2023-07-23T02:18:00.697Z,85.60
2023-07-23T02:21:42.568Z,85.60
2023-07-23T02:25:24.480Z,85.70
2023-07-23T02:29:06.268Z,85.80
2023-07-23T02:32:48.088Z,85.90
2023-07-23T02:36:29.946Z,85.90
2023-07-23T02:40:12.410Z,85.90
2023-07-23T02:43:57.256Z,85.90
2023-07-23T02:47:39.088Z,85.90
2023-07-23T02:51:21.473Z,86.00
2023-07-23T02:55:04.153Z,85.90
2023-07-23T02:58:45.914Z,85.80
2023-07-23T03:02:27.758Z,85.90
2023-07-23T03:06:10.086Z,85.90
2023-07-23T03:09:51.918Z,85.90
2023-07-23T03:13:34.016Z,85.80
2023-07-23T03:17:15.815Z,85.80
2023-07-23T03:20:57.810Z,85.80
2023-07-23T03:24:39.749Z,85.70
2023-07-23T03:28:21.634Z,85.70
2023-07-23T03:32:03.753Z,85.60
2023-07-23T03:35:45.623Z,85.60
2023-07-23T03:39:27.433Z,85.60
2023-07-23T03:43:09.236Z,85.50
2023-07-23T03:47:04.239Z,85.50
2023-07-23T03:50:46.036Z,85.80
2023-07-23T03:54:27.911Z,85.60
2023-07-23T03:58:09.981Z,85.60
2023-07-23T04:01:51.803Z,85.60
2023-07-23T04:05:33.617Z,85.50
2023-07-23T04:09:15.399Z,85.50
2023-07-23T04:12:57.180Z,85.50
2023-07-23T04:16:39.078Z,85.50
2023-07-23T04:20:20.955Z,85.60
2023-07-23T04:24:02.901Z,85.60
2023-07-23T04:27:44.701Z,85.60
2023-07-23T04:31:26.821Z,85.60
2023-07-23T04:35:09.252Z,85.70
2023-07-23T04:38:51.028Z,85.80
2023-07-23T04:42:32.781Z,85.80
2023-07-23T04:46:14.633Z,85.80
2023-07-23T04:49:57.965Z,85.70
2023-07-23T04:53:39.852Z,85.70
2023-07-23T04:57:21.620Z,85.70
2023-07-23T05:01:09.688Z,85.70
2023-07-23T05:04:51.574Z,85.80
2023-07-23T05:08:34.594Z,85.80
2023-07-23T05:12:16.484Z,85.70
2023-07-23T05:16:03.450Z,85.70
2023-07-23T05:19:45.295Z,85.70
2023-07-23T05:23:27.095Z,85.70
2023-07-23T05:27:08.872Z,85.80
2023-07-23T05:30:50.678Z,85.80
2023-07-23T05:34:32.442Z,85.80
2023-07-23T05:38:14.272Z,85.80
2023-07-23T05:41:56.076Z,85.90
2023-07-23T05:45:37.853Z,85.90
2023-07-23T05:49:19.611Z,85.90
2023-07-23T05:53:01.435Z,86.00
2023-07-23T05:56:43.262Z,86.00
2023-07-23T06:00:25.196Z,86.00
2023-07-23T06:04:06.974Z,86.00
2023-07-23T06:07:48.803Z,86.00
2023-07-23T06:11:30.974Z,86.10
2023-07-23T06:15:13.299Z,86.00
2023-07-23T06:18:55.693Z,86.10
2023-07-23T06:22:39.020Z,86.20
2023-07-23T06:26:20.884Z,86.10
2023-07-23T06:30:02.774Z,86.20
2023-07-23T06:33:44.665Z,86.20
2023-07-23T06:37:26.518Z,86.20
2023-07-23T06:41:08.322Z,86.00
2023-07-23T06:44:50.152Z,86.20
2023-07-23T06:48:31.968Z,86.10
2023-07-23T06:52:13.857Z,86.00
2023-07-23T06:56:09.454Z,86.00
2023-07-23T06:59:51.394Z,86.10
2023-07-23T07:03:33.778Z,86.00
2023-07-23T07:07:15.652Z,86.00
2023-07-23T07:10:59.462Z,85.90
2023-07-23T07:14:41.434Z,86.10
2023-07-23T07:18:25.589Z,86.10
2023-07-23T07:22:07.424Z,86.10
2023-07-23T07:25:49.253Z,86.00
2023-07-23T07:29:31.033Z,85.90
2023-07-23T07:33:12.845Z,85.90
2023-07-23T07:36:54.681Z,85.90
2023-07-23T07:40:40.269Z,85.60
2023-07-23T07:44:22.058Z,85.50
2023-07-23T07:48:04.071Z,85.60
2023-07-23T07:51:49.924Z,85.40
2023-07-23T07:55:31.977Z,85.10
2023-07-23T07:59:14.138Z,85.10
2023-07-23T08:02:56.204Z,85.20
2023-07-23T08:06:39.270Z,85.10
2023-07-23T08:10:21.486Z,84.90
2023-07-23T08:14:05.090Z,84.80
2023-07-23T08:17:47.093Z,84.70
2023-07-23T08:21:29.342Z,84.60
2023-07-23T08:25:12.367Z,84.40
2023-07-23T08:29:00.987Z,84.10
2023-07-23T08:32:43.684Z,83.80
2023-07-23T08:36:27.353Z,83.60
2023-07-23T08:40:09.911Z,83.70
2023-07-23T08:44:06.731Z,83.50
2023-07-23T08:47:49.081Z,82.80
2023-07-23T08:51:41.022Z,83.30
2023-07-23T08:55:23.593Z,83.10
2023-07-23T08:59:06.969Z,82.60
2023-07-23T09:02:51.811Z,82.40
2023-07-23T09:06:34.054Z,82.10
2023-07-23T09:10:15.910Z,81.90
2023-07-23T09:14:17.263Z,81.80
2023-07-23T09:18:00.925Z,80.70
2023-07-23T09:21:44.187Z,81.10
2023-07-23T09:25:31.520Z,81.00
2023-07-23T09:29:13.683Z,81.10
2023-07-23T09:33:00.738Z,80.60
2023-07-23T09:36:42.614Z,79.70
2023-07-23T09:40:34.709Z,79.50
2023-07-23T09:44:18.806Z,79.20
2023-07-23T09:48:15.486Z,78.50
2023-07-23T09:51:59.284Z,79.00
2023-07-23T09:55:41.513Z,79.50
2023-07-23T09:59:25.215Z,79.90
2023-07-23T10:03:09.108Z,79.80
2023-07-23T10:06:51.324Z,79.70
2023-07-23T10:10:33.197Z,79.60
2023-07-23T10:14:15.154Z,79.60
2023-07-23T10:18:02.052Z,79.40
2023-07-23T10:21:48.331Z,79.00
2023-07-23T10:25:35.212Z,79.00
2023-07-23T10:29:20.016Z,79.10
2023-07-23T10:33:10.881Z,78.80
2023-07-23T10:37:24.248Z,78.50
2023-07-23T10:41:06.631Z,77.50
2023-07-23T10:44:48.544Z,78.20
2023-07-23T10:49:03.777Z,77.90
2023-07-23T10:52:50.847Z,77.40
2023-07-23T10:56:37.302Z,77.70
2023-07-23T11:00:23.210Z,77.00
2023-07-23T11:04:10.692Z,77.00
2023-07-23T11:08:25.222Z,75.40
2023-07-23T11:12:07.539Z,74.60
2023-07-23T11:15:49.754Z,76.00
2023-07-23T11:19:32.819Z,75.40
2023-07-23T11:23:15.724Z,74.70
2023-07-23T11:26:59.810Z,74.80
2023-07-23T11:30:41.647Z,74.60
2023-07-23T11:34:24.870Z,74.70
2023-07-23T11:38:06.719Z,74.70
2023-07-23T11:41:48.556Z,75.30
2023-07-23T11:45:30.352Z,76.10
2023-07-23T11:49:13.899Z,76.50
2023-07-23T11:53:03.639Z,77.20
2023-07-23T11:56:49.777Z,77.30
2023-07-23T12:00:36.977Z,77.30
2023-07-23T12:04:18.863Z,77.00
2023-07-23T12:08:01.632Z,76.30
2023-07-23T12:11:44.050Z,76.40
2023-07-23T12:15:25.901Z,75.80
2023-07-23T12:19:14.420Z,75.20
2023-07-23T12:23:03.064Z,74.10
2023-07-23T12:26:49.940Z,71.60
2023-07-23T12:30:31.807Z,72.70
2023-07-23T12:34:14.641Z,72.10
2023-07-23T12:37:56.619Z,71.20
2023-07-23T12:41:38.527Z,71.00
2023-07-23T12:45:20.321Z,70.50
2023-07-23T12:49:02.127Z,69.50
2023-07-23T12:52:43.949Z,68.90
2023-07-23T12:56:25.753Z,68.40
2023-07-23T13:00:08.477Z,67.40
2023-07-23T13:03:50.344Z,67.70
2023-07-23T13:07:32.209Z,67.20
2023-07-23T13:11:14.236Z,67.20
2023-07-23T13:14:56.087Z,67.10
2023-07-23T13:18:37.926Z,67.30
2023-07-23T13:22:19.683Z,67.40
2023-07-23T13:26:01.707Z,68.20
2023-07-23T13:29:43.642Z,69.30
2023-07-23T13:33:25.590Z,70.20
2023-07-23T13:37:07.405Z,71.40
2023-07-23T13:40:49.334Z,73.00
2023-07-23T13:44:31.180Z,73.50
2023-07-23T13:48:12.982Z,73.50
2023-07-23T13:51:54.768Z,73.60
2023-07-23T13:55:36.622Z,72.10
2023-07-23T13:59:18.494Z,71.10
2023-07-23T14:03:00.339Z,70.40
2023-07-23T14:06:42.262Z,70.00
2023-07-23T14:10:24.284Z,69.60
2023-07-23T14:14:07.388Z,69.60
2023-07-23T14:17:49.708Z,69.50
2023-07-23T14:21:31.809Z,69.50
2023-07-23T14:25:13.788Z,69.40
2023-07-23T14:28:55.672Z,69.40
2023-07-23T14:32:37.554Z,69.20
2023-07-23T14:36:19.721Z,68.90
2023-07-23T14:40:01.596Z,68.70
2023-07-23T14:43:43.644Z,68.30
2023-07-23T14:47:25.441Z,68.30
2023-07-23T14:51:07.754Z,68.30
2023-07-23T14:54:49.562Z,68.50
2023-07-23T14:58:31.425Z,69.50
2023-07-23T15:02:13.407Z,70.40
2023-07-23T15:05:55.442Z,71.90
2023-07-23T15:09:37.230Z,72.40
2023-07-23T15:13:19.341Z,71.90
2023-07-23T15:17:01.372Z,71.10
2023-07-23T15:20:43.478Z,70.90
2023-07-23T15:24:25.585Z,70.40
2023-07-23T15:28:08.763Z,69.40
2023-07-23T15:31:50.552Z,69.20
2023-07-23T15:35:32.459Z,69.30
2023-07-23T15:39:14.236Z,69.50
2023-07-23T15:42:56.069Z,69.80
2023-07-23T15:46:39.118Z,69.90
2023-07-23T15:50:23.014Z,69.60
2023-07-23T15:54:04.809Z,69.40
2023-07-23T15:57:46.690Z,69.50
2023-07-23T16:01:28.827Z,69.70
2023-07-23T16:05:10.895Z,70.40
2023-07-23T16:08:52.819Z,70.60
2023-07-23T16:12:34.633Z,69.80
2023-07-23T16:16:16.446Z,69.40
2023-07-23T16:19:58.333Z,69.20
2023-07-23T16:23:40.185Z,69.30
2023-07-23T16:27:26.404Z,69.30
2023-07-23T16:31:08.297Z,69.30
2023-07-23T16:34:50.474Z,69.30
2023-07-23T16:38:32.762Z,69.40
2023-07-23T16:42:16.103Z,69.40
2023-07-23T16:45:58.286Z,69.20
2023-07-23T16:49:40.154Z,69.20
2023-07-23T16:53:27.025Z,69.40
2023-07-23T16:57:09.366Z,69.40
2023-07-23T17:00:51.190Z,69.50
2023-07-23T17:04:32.983Z,69.40
2023-07-23T17:08:14.780Z,69.30
2023-07-23T17:11:56.582Z,69.30
2023-07-23T17:15:38.533Z,69.40
2023-07-23T17:19:20.344Z,69.40
2023-07-23T17:23:02.296Z,69.40
2023-07-23T17:26:44.081Z,69.40
2023-07-23T17:30:25.859Z,69.40
2023-07-23T17:34:07.666Z,69.40
2023-07-23T17:37:50.692Z,69.40
2023-07-23T17:41:32.474Z,69.60
2023-07-23T17:45:14.954Z,69.60
2023-07-23T17:48:56.744Z,69.60
2023-07-23T17:52:38.560Z,69.60
2023-07-23T17:56:20.399Z,69.70
2023-07-23T18:00:02.292Z,69.90
2023-07-23T18:03:44.323Z,70.00
2023-07-23T18:07:26.222Z,70.00
2023-07-23T18:11:12.163Z,70.10
2023-07-23T18:14:53.965Z,70.00
2023-07-23T18:18:35.758Z,70.20
2023-07-23T18:22:17.635Z,70.60
2023-07-23T18:26:05.936Z,70.90
2023-07-23T18:29:48.578Z,70.90
2023-07-23T18:33:31.399Z,71.00
2023-07-23T18:37:13.286Z,71.10
2023-07-23T18:40:56.409Z,71.10
2023-07-23T18:44:38.308Z,71.40
2023-07-23T18:48:20.103Z,71.50
2023-07-23T18:52:01.966Z,71.60
2023-07-23T18:55:43.751Z,71.70
2023-07-23T18:59:25.601Z,71.90
2023-07-23T19:03:07.505Z,72.00
2023-07-23T19:06:49.710Z,72.00
2023-07-23T19:10:31.565Z,72.10
2023-07-23T19:14:13.339Z,72.20
2023-07-23T19:17:55.320Z,72.20
2023-07-23T19:21:37.141Z,72.20
2023-07-23T19:25:18.951Z,72.20
2023-07-23T19:29:01.288Z,72.20
2023-07-23T19:32:43.171Z,72.30
2023-07-23T19:36:25.134Z,72.30
2023-07-23T19:40:09.280Z,72.20
2023-07-23T19:43:51.132Z,72.10
2023-07-23T19:47:33.001Z,72.10
2023-07-23T19:51:14.813Z,72.30
2023-07-23T19:54:56.635Z,72.30
2023-07-23T19:58:38.427Z,72.50
2023-07-23T20:02:20.366Z,72.70
2023-07-23T20:06:02.280Z,72.70
2023-07-23T20:09:44.067Z,72.90
2023-07-23T20:13:25.853Z,73.00
2023-07-23T20:17:07.737Z,73.10
2023-07-23T20:20:50.582Z,73.20
2023-07-23T20:24:32.425Z,73.30
2023-07-23T20:28:14.528Z,73.30
2023-07-23T20:31:56.738Z,73.40
2023-07-23T20:35:39.846Z,73.50
2023-07-23T20:39:21.984Z,73.60
2023-07-23T20:43:04.056Z,73.60
2023-07-23T20:46:45.825Z,73.50
2023-07-23T20:50:27.797Z,73.50
2023-07-23T20:54:09.673Z,73.50
2023-07-23T20:57:51.577Z,73.40
2023-07-23T21:01:33.363Z,73.40
2023-07-23T21:05:15.171Z,73.40
2023-07-23T21:08:56.982Z,73.50
2023-07-23T21:12:38.849Z,73.60
2023-07-23T21:16:20.723Z,73.70
2023-07-23T21:20:02.556Z,73.80
2023-07-23T21:23:44.428Z,73.90
2023-07-23T21:27:26.239Z,74.00
2023-07-23T21:31:08.101Z,74.00
2023-07-23T21:34:50.077Z,74.00
2023-07-23T21:38:32.759Z,73.90
2023-07-23T21:42:16.171Z,73.90
2023-07-23T21:45:58.055Z,74.00
2023-07-23T21:49:39.860Z,74.10
2023-07-23T21:53:22.413Z,74.10
2023-07-23T21:57:04.519Z,74.10
2023-07-23T22:00:46.962Z,74.20
2023-07-23T22:04:28.808Z,74.30
2023-07-23T22:08:10.691Z,74.50
2023-07-23T22:11:52.577Z,74.60
2023-07-23T22:15:34.393Z,74.80
2023-07-23T22:19:16.411Z,74.90
2023-07-23T22:22:58.178Z,75.20
2023-07-23T22:26:40.020Z,75.30
2023-07-23T22:30:30.717Z,75.30
2023-07-23T22:34:13.074Z,75.40
2023-07-23T22:37:55.194Z,75.40
2023-07-23T22:41:37.060Z,75.40
2023-07-23T22:45:21.433Z,75.50
2023-07-23T22:49:03.638Z,75.50
2023-07-23T22:52:45.423Z,75.60
2023-07-23T22:56:27.695Z,75.60
2023-07-23T23:00:11.243Z,75.60
2023-07-23T23:03:53.213Z,75.60
2023-07-23T23:07:35.002Z,75.80
2023-07-23T23:11:16.837Z,76.00
2023-07-23T23:14:58.675Z,76.00
2023-07-23T23:18:40.468Z,76.00
2023-07-23T23:22:22.739Z,76.00
2023-07-23T23:26:04.560Z,76.20
2023-07-23T23:29:46.466Z,76.20
2023-07-23T23:33:28.238Z,76.30
2023-07-23T23:37:10.032Z,76.20
2023-07-23T23:40:53.060Z,76.30
2023-07-23T23:44:34.838Z,76.30
2023-07-23T23:48:16.894Z,76.30
2023-07-23T23:51:58.692Z,76.40
2023-07-23T23:55:40.518Z,76.40
2023-07-23T23:59:22.412Z,76.60
